Time;durP1;ratioP1;P1;durP2;ratioP2;P2;SDS_P1;SDS_P2;PMS_P1;PMS_P2;Temp;Humidity;BMP_temperature;BMP_pressure;BME280_temperature;BME280_humidity;BME280_pressure;Samples;Min_cycle;Max_cycle;Signal;HPM_P1;HPM_P2
2021/04/07 00:00:33;;;;;;;6.03;5.60;;;1.30;99.90;;;2.07;75.38;97398.84;5161874;28;20295;-58
2021/04/07 00:03:07;;;;;;;6.03;5.57;;;1.30;99.90;;;2.06;76.14;97401.22;5164372;28;20225;-58
2021/04/07 00:05:43;;;;;;;6.20;5.70;;;1.30;99.90;;;2.18;76.43;97400.59;5155758;28;20326;-59
2021/04/07 00:08:19;;;;;;;6.00;5.50;;;1.20;99.90;;;2.19;76.60;97392.25;5159456;28;20322;-58
2021/04/07 00:10:53;;;;;;;6.33;5.73;;;1.30;99.90;;;2.24;76.18;97398.56;5159529;28;20192;-59
2021/04/07 00:13:25;;;;;;;6.20;5.70;;;1.20;99.90;;;2.10;78.12;97404.13;5168142;28;20285;-59
2021/04/07 00:15:57;;;;;;;5.77;5.27;;;1.20;99.90;;;2.03;77.02;97404.38;5156188;28;20591;-59
2021/04/07 00:18:30;;;;;;;6.80;6.30;;;1.20;99.90;;;2.01;77.91;97406.78;5164558;28;20287;-59
2021/04/07 00:21:03;;;;;;;7.50;6.97;;;1.20;99.90;;;1.92;79.18;97403.50;5167494;28;20572;-59
2021/04/07 00:23:35;;;;;;;6.70;6.10;;;1.10;99.90;;;1.86;79.36;97409.66;5169743;28;20203;-58
2021/04/07 00:26:07;;;;;;;6.80;6.20;;;1.00;99.90;;;1.76;80.03;97405.50;5164933;28;20218;-59
2021/04/07 00:28:39;;;;;;;6.73;5.83;;;1.00;99.90;;;1.80;80.77;97408.41;5164758;28;20201;-58
2021/04/07 00:31:12;;;;;;;6.37;6.07;;;0.90;99.90;;;1.67;81.15;97410.66;5168514;28;20191;-59
2021/04/07 00:33:45;;;;;;;7.10;6.50;;;0.90;99.90;;;1.68;81.72;97414.94;5154508;28;20202;-54
2021/04/07 00:36:17;;;;;;;6.23;5.67;;;0.90;99.90;;;1.63;82.06;97411.16;5154836;28;20249;-56
2021/04/07 00:38:49;;;;;;;7.37;6.77;;;0.80;99.90;;;1.64;83.09;97425.50;5167524;28;20735;-58
2021/04/07 00:41:21;;;;;;;7.33;6.63;;;0.80;99.90;;;1.71;83.12;97419.34;5165793;28;20192;-59
2021/04/07 00:43:53;;;;;;;6.40;6.00;;;0.80;99.90;;;1.60;83.45;97423.47;5160029;28;20589;-58
2021/04/07 00:46:25;;;;;;;6.87;6.37;;;0.80;99.90;;;1.51;83.61;97422.72;5167213;28;20219;-58
2021/04/07 00:48:58;;;;;;;7.37;6.80;;;0.80;99.90;;;1.66;83.69;97424.03;5166404;28;20562;-58
2021/04/07 00:51:31;;;;;;;7.60;7.00;;;0.80;99.90;;;1.65;82.98;97433.94;5167436;28;20206;-58
2021/04/07 00:54:03;;;;;;;7.33;6.67;;;0.70;99.90;;;1.53;83.69;97431.28;5165195;28;20199;-58
2021/04/07 00:56:35;;;;;;;6.83;6.33;;;0.70;99.90;;;1.60;83.44;97438.59;5166096;28;20231;-58
2021/04/07 00:59:07;;;;;;;7.17;6.67;;;0.70;99.90;;;1.61;83.77;97442.88;5163089;28;20203;-58
2021/04/07 01:01:39;;;;;;;8.10;7.33;;;0.70;99.90;;;1.62;83.50;97438.72;5164540;28;20284;-58
2021/04/07 01:04:13;;;;;;;7.77;7.17;;;0.70;99.90;;;1.51;83.67;97437.81;5157371;28;20223;-59
2021/04/07 01:06:47;;;;;;;7.40;6.97;;;0.70;99.90;;;1.63;83.14;97441.41;5160185;28;20326;-54
2021/04/07 01:09:19;;;;;;;8.67;7.97;;;0.80;99.90;;;1.61;83.80;97444.53;5161465;28;20204;-57
2021/04/07 01:11:51;;;;;;;8.17;7.67;;;0.80;99.90;;;1.55;84.10;97447.41;5166637;28;20205;-58
2021/04/07 01:14:24;;;;;;;7.97;7.37;;;0.70;99.90;;;1.58;83.74;97445.16;5164857;28;20627;-58
2021/04/07 01:16:56;;;;;;;8.07;7.50;;;0.70;99.90;;;1.57;84.57;97451.84;5166159;28;20306;-58
2021/04/07 01:19:29;;;;;;;8.27;7.67;;;0.70;99.90;;;1.60;84.06;97446.13;5163085;28;20613;-58
2021/04/07 01:22:02;;;;;;;8.77;8.07;;;0.70;99.90;;;1.48;84.60;97450.16;5160000;28;20294;-58
2021/04/07 01:24:37;;;;;;;8.73;7.93;;;0.70;99.90;;;1.55;84.08;97447.41;5166016;28;20654;-57
2021/04/07 01:27:09;;;;;;;8.47;7.80;;;0.70;99.90;;;1.53;84.51;97456.47;5166120;28;20194;-58
2021/04/07 01:29:41;;;;;;;8.87;8.07;;;0.70;99.90;;;1.50;84.62;97456.22;5164490;28;20290;-58
2021/04/07 01:32:13;;;;;;;8.20;7.53;;;0.70;99.90;;;1.45;85.08;97455.81;5165981;28;20207;-58
2021/04/07 01:34:49;;;;;;;8.47;7.87;;;0.80;99.90;;;1.47;85.10;97453.44;5159431;28;20637;-58
2021/04/07 01:37:21;;;;;;;8.90;8.20;;;0.70;99.90;;;1.47;85.15;97448.41;5163951;28;20219;-57
2021/04/07 01:39:54;;;;;;;9.00;8.30;;;0.70;99.90;;;1.44;85.43;97451.53;5166176;28;20290;-57
2021/04/07 01:42:28;;;;;;;8.30;7.60;;;0.70;99.90;;;1.59;83.93;97446.91;5164910;28;20659;-58
2021/04/07 01:45:02;;;;;;;9.07;8.27;;;0.60;99.90;;;1.48;84.98;97460.22;5166102;28;20215;-57
2021/04/07 01:47:34;;;;;;;8.40;7.60;;;0.60;99.90;;;1.30;85.31;97455.38;5163495;28;20199;-57
2021/04/07 01:50:09;;;;;;;8.83;8.03;;;0.60;99.90;;;1.35;85.29;97464.22;5166156;28;20199;-58
2021/04/07 01:52:41;;;;;;;8.33;7.67;;;0.60;99.90;;;1.30;85.90;97460.41;5160750;28;20203;-59
2021/04/07 01:55:14;;;;;;;8.90;8.10;;;0.60;99.90;;;1.45;85.78;97470.91;5160943;28;20250;-58
2021/04/07 01:57:47;;;;;;;7.43;6.87;;;0.60;99.90;;;1.37;85.22;97466.84;5163160;28;20226;-58
2021/04/07 02:00:20;;;;;;;7.80;7.20;;;0.60;99.90;;;1.28;85.82;97466.06;5165760;28;20743;-57
2021/04/07 02:02:52;;;;;;;7.67;7.10;;;0.60;99.90;;;1.31;85.63;97467.22;5165097;28;20638;-57
2021/04/07 02:05:25;;;;;;;7.57;6.90;;;0.60;99.90;;;1.32;85.34;97471.50;5160193;28;20247;-57
2021/04/07 02:07:57;;;;;;;7.53;6.93;;;0.60;99.90;;;1.38;85.08;97477.84;5164041;28;20191;-59
2021/04/07 02:10:30;;;;;;;8.03;7.43;;;0.60;99.90;;;1.38;85.14;97477.84;5157269;28;20203;-58
2021/04/07 02:13:03;;;;;;;8.80;8.10;;;0.70;99.90;;;1.35;84.74;97484.38;5160587;28;20196;-57
2021/04/07 02:15:35;;;;;;;8.30;7.70;;;0.60;99.90;;;1.37;84.57;97481.09;5158469;28;20314;-54
2021/04/07 02:18:07;;;;;;;7.73;7.13;;;0.60;99.90;;;1.38;84.97;97481.22;5162543;28;20689;-55
2021/04/07 02:20:39;;;;;;;8.43;7.67;;;0.60;99.90;;;1.46;84.32;97487.81;5165643;28;20197;-56
2021/04/07 02:23:11;;;;;;;7.83;7.23;;;0.60;99.90;;;1.40;85.33;97496.44;5161075;28;20197;-56
2021/04/07 02:25:44;;;;;;;8.03;7.27;;;0.60;99.90;;;1.31;84.84;97494.03;5164326;28;20317;-58
2021/04/07 02:28:16;;;;;;;8.33;7.73;;;0.60;99.90;;;1.53;84.55;97494.25;5164716;28;20200;-55
2021/04/07 02:30:48;;;;;;;7.47;6.97;;;0.70;99.90;;;1.55;83.90;97495.25;5153982;28;20204;-55
2021/04/07 02:33:21;;;;;;;8.23;7.63;;;0.70;99.90;;;1.48;83.72;97511.47;5159353;28;20290;-56
2021/04/07 02:35:53;;;;;;;7.73;7.03;;;0.70;99.90;;;1.48;84.48;97505.53;5153135;28;20595;-55
2021/04/07 02:38:25;;;;;;;7.77;7.13;;;0.70;99.90;;;1.40;84.33;97501.47;5145269;28;20222;-54
2021/04/07 02:40:58;;;;;;;7.87;7.23;;;0.70;99.90;;;1.32;84.29;97505.88;5152524;28;20294;-58
2021/04/07 02:43:30;;;;;;;8.33;7.53;;;0.60;99.90;;;1.23;83.68;97505.97;5148490;28;20201;-56
2021/04/07 02:46:04;;;;;;;8.17;7.47;;;0.60;99.90;;;1.31;83.85;97507.50;5157898;28;20486;-58
2021/04/07 02:48:36;;;;;;;7.93;7.23;;;0.60;99.90;;;1.32;83.69;97513.44;5162198;28;20205;-59
2021/04/07 02:51:08;;;;;;;8.10;7.33;;;0.60;99.90;;;1.32;83.27;97509.28;5157987;28;20202;-57
2021/04/07 02:53:41;;;;;;;7.73;7.03;;;0.60;99.90;;;1.32;83.63;97509.28;5164452;28;20191;-58
2021/04/07 02:56:13;;;;;;;8.73;8.10;;;0.60;99.90;;;1.43;83.59;97516.84;5159440;28;20229;-56
2021/04/07 02:58:46;;;;;;;8.90;8.20;;;0.60;99.90;;;1.45;83.54;97517.88;5164730;28;20195;-58
2021/04/07 03:01:19;;;;;;;9.67;8.60;;;0.70;99.90;;;1.42;83.87;97525.16;5164264;28;20195;-58
2021/04/07 03:03:51;;;;;;;8.73;8.03;;;0.70;99.90;;;1.46;84.34;97529.69;5163050;28;20286;-57
2021/04/07 03:06:23;;;;;;;9.63;8.80;;;0.70;99.90;;;1.35;83.74;97532.19;5158738;28;20216;-58
2021/04/07 03:08:56;;;;;;;8.60;7.90;;;0.70;99.90;;;1.38;83.04;97540.78;5153277;28;20195;-54
2021/04/07 03:11:28;;;;;;;8.50;7.63;;;0.60;99.90;;;1.37;81.33;97537.34;5160700;28;20299;-58
2021/04/07 03:14:02;;;;;;;8.43;7.63;;;0.60;99.90;;;1.49;81.21;97537.56;5151321;28;20291;-56
2021/04/07 03:16:34;;;;;;;8.80;8.10;;;0.50;99.90;;;1.34;81.86;97537.09;5159209;28;20315;-57
2021/04/07 03:19:06;;;;;;;9.20;8.50;;;0.60;99.90;;;1.26;82.43;97549.03;5164228;28;20630;-58
2021/04/07 03:21:38;;;;;;;9.43;8.63;;;0.50;99.90;;;1.33;81.71;97536.19;5163409;28;20202;-58
2021/04/07 03:24:10;;;;;;;9.57;8.77;;;0.60;99.90;;;1.29;81.83;97539.22;5164188;28;20730;-57
2021/04/07 03:26:43;;;;;;;9.67;8.77;;;0.60;99.90;;;1.31;82.14;97542.72;5162399;28;20219;-58
2021/04/07 03:29:16;;;;;;;9.43;8.67;;;0.60;99.90;;;1.28;83.17;97544.97;5157601;28;20195;-57
2021/04/07 03:31:48;;;;;;;9.33;8.63;;;0.60;99.90;;;1.39;83.38;97552.59;5163837;28;20659;-57
2021/04/07 03:34:20;;;;;;;9.33;8.43;;;0.60;99.90;;;1.34;83.43;97547.16;5164472;28;20206;-58
2021/04/07 03:36:52;;;;;;;10.43;9.53;;;0.60;99.90;;;1.34;83.73;97548.06;5163498;28;20225;-59
2021/04/07 03:39:24;;;;;;;10.23;9.43;;;0.60;99.90;;;1.38;82.79;97555.88;5155346;28;20199;-58
2021/04/07 03:41:57;;;;;;;11.57;10.47;;;0.60;99.90;;;1.39;83.01;97565.19;5159309;28;20349;-58
2021/04/07 03:44:29;;;;;;;10.60;9.60;;;0.60;99.90;;;1.34;83.49;97560.66;5160613;28;20593;-58
2021/04/07 03:47:01;;;;;;;10.10;9.20;;;0.60;99.90;;;1.32;83.17;97571.34;5163750;28;20217;-58
2021/04/07 03:49:33;;;;;;;10.73;9.80;;;0.50;99.90;;;1.29;82.69;97574.47;5164236;28;20682;-58
2021/04/07 03:52:06;;;;;;;10.53;9.53;;;0.50;99.90;;;1.24;82.90;97568.13;5162283;28;20739;-57
2021/04/07 03:54:39;;;;;;;11.73;10.67;;;0.50;99.90;;;1.28;82.73;97575.19;5157120;28;20395;-59
2021/04/07 03:57:12;;;;;;;11.33;10.43;;;0.50;99.90;;;1.29;83.13;97587.03;5157854;28;20223;-58
2021/04/07 03:59:44;;;;;;;10.73;9.77;;;0.50;99.90;;;1.28;82.83;97585.25;5161858;28;20660;-58
2021/04/07 04:02:16;;;;;;;12.03;10.80;;;0.50;99.90;;;1.16;82.83;97581.66;5152711;28;20197;-56
2021/04/07 04:04:48;;;;;;;11.10;10.03;;;0.50;99.90;;;1.28;82.16;97587.78;5163101;28;20247;-58
2021/04/07 04:07:20;;;;;;;11.90;10.80;;;0.50;99.90;;;1.16;82.00;97586.72;5163919;28;20274;-58
2021/04/07 04:09:52;;;;;;;11.43;10.40;;;0.50;99.90;;;1.21;82.94;97588.00;5162280;28;20203;-57
2021/04/07 04:12:25;;;;;;;12.10;10.90;;;0.50;99.90;;;1.28;82.72;97596.97;5164043;28;20670;-58
2021/04/07 04:14:57;;;;;;;11.53;10.50;;;0.50;99.90;;;1.28;82.80;97602.88;5159424;28;20310;-58
2021/04/07 04:17:29;;;;;;;12.87;11.60;;;0.50;99.90;;;1.23;83.32;97604.13;5159033;28;20211;-57
2021/04/07 04:20:02;;;;;;;11.30;10.10;;;0.50;99.90;;;1.21;82.41;97610.66;5163256;28;20290;-58
2021/04/07 04:22:34;;;;;;;12.07;11.03;;;0.40;99.90;;;1.22;83.03;97607.38;5162413;28;20294;-57
2021/04/07 04:25:09;;;;;;;11.90;10.80;;;0.40;99.90;;;1.22;82.10;97612.41;5163879;28;20230;-57
2021/04/07 04:27:42;;;;;;;11.63;10.53;;;0.40;99.90;;;1.20;83.10;97606.34;5162250;28;20205;-58
2021/04/07 04:30:17;;;;;;;10.43;9.43;;;0.40;99.90;;;1.25;83.18;97615.19;5162943;28;20213;-58
2021/04/07 04:32:50;;;;;;;11.30;10.30;;;0.50;99.90;;;1.26;82.96;97617.00;5154963;28;20191;-58
2021/04/07 04:35:23;;;;;;;12.10;11.07;;;0.40;99.90;;;1.21;82.85;97625.75;5164045;28;20309;-58
2021/04/07 04:37:55;;;;;;;11.20;10.17;;;0.50;99.90;;;1.40;82.35;97627.38;5151917;28;20224;-58
2021/04/07 04:40:27;;;;;;;12.07;10.97;;;0.50;99.90;;;1.24;82.36;97633.59;5161240;28;20295;-58
2021/04/07 04:43:00;;;;;;;43.77;26.53;;;0.50;99.90;;;1.31;82.34;97637.50;5145078;28;20650;-58
2021/04/07 04:45:33;;;;;;;162.00;85.43;;;0.50;99.90;;;1.27;82.54;97641.41;5160862;28;20219;-58
2021/04/07 04:48:07;;;;;;;84.70;75.47;;;0.50;99.90;;;1.34;82.85;97643.72;5159982;28;20223;-58
2021/04/07 04:50:39;;;;;;;33.27;29.87;;;0.50;99.90;;;1.28;82.21;97652.34;5163751;28;20218;-58
2021/04/07 04:53:11;;;;;;;20.87;17.17;;;0.50;99.90;;;1.29;82.72;97649.97;5167239;28;20235;-58
2021/04/07 04:55:43;;;;;;;12.60;11.50;;;0.50;99.90;;;1.33;83.08;97662.09;5182514;28;20725;-58
2021/04/07 04:58:16;;;;;;;10.77;9.77;;;0.60;99.90;;;1.34;82.19;97673.94;5160186;28;20241;-58
2021/04/07 05:00:48;;;;;;;11.00;9.87;;;0.50;99.90;;;1.30;82.40;97681.94;5161635;28;20669;-57
2021/04/07 05:03:20;;;;;;;10.23;9.20;;;0.60;99.90;;;1.30;83.02;97681.94;5164923;28;20195;-57
2021/04/07 05:05:52;;;;;;;10.07;8.83;;;0.50;99.90;;;1.31;82.50;97683.72;5155096;28;20223;-57
2021/04/07 05:08:24;;;;;;;10.43;9.50;;;0.50;99.90;;;1.32;82.88;97695.56;5162120;28;20206;-58
2021/04/07 05:10:57;;;;;;;9.97;9.03;;;0.60;99.90;;;1.39;82.67;97698.63;5167252;28;20807;-57
2021/04/07 05:13:29;;;;;;;9.40;8.60;;;0.50;99.90;;;1.29;82.68;97707.00;5164793;28;20211;-57
2021/04/07 05:16:02;;;;;;;8.40;7.70;;;0.50;99.90;;;1.33;82.05;97714.94;5161468;28;20226;-58
2021/04/07 05:18:34;;;;;;;10.13;9.13;;;0.50;99.90;;;1.39;82.42;97716.25;5165153;28;20667;-56
2021/04/07 05:21:06;;;;;;;8.47;7.70;;;0.60;99.90;;;1.31;81.49;97718.94;5165830;28;20200;-57
2021/04/07 05:23:38;;;;;;;8.30;7.60;;;0.50;99.90;;;1.19;81.29;97732.97;5165331;28;20195;-55
2021/04/07 05:26:10;;;;;;;8.30;7.53;;;0.40;99.90;;;1.23;82.10;97719.91;5180208;22;20708;-55
2021/04/07 05:28:43;;;;;;;9.67;8.77;;;0.50;99.90;;;1.30;81.70;97729.78;5180745;28;20195;-52
2021/04/07 05:31:16;;;;;;;9.40;8.10;;;0.50;99.90;;;1.35;81.91;97736.13;5178174;28;20234;-54
2021/04/07 05:33:48;;;;;;;9.07;8.20;;;0.50;99.90;;;1.37;80.86;97742.91;5165991;28;20196;-55
2021/04/07 05:36:20;;;;;;;9.00;8.20;;;0.60;99.90;;;1.38;80.67;97743.06;5166370;28;20215;-53
2021/04/07 05:38:52;;;;;;;47.77;32.63;;;0.60;99.90;;;1.40;80.48;97745.69;5166387;28;20238;-54
2021/04/07 05:41:24;;;;;;;16.27;12.63;;;0.60;99.90;;;1.49;79.78;97744.91;5167015;28;20197;-54
2021/04/07 05:43:58;;;;;;;8.47;7.70;;;0.60;99.90;;;1.42;80.39;97746.75;5166152;28;20199;-56
2021/04/07 05:46:30;;;;;;;7.90;7.20;;;0.60;99.90;;;1.36;80.89;97747.06;5166570;28;20305;-54
2021/04/07 05:49:02;;;;;;;8.00;7.20;;;0.60;99.90;;;1.33;80.71;97762.78;5166470;28;20663;-55
2021/04/07 05:51:34;;;;;;;8.90;8.10;;;0.60;99.90;;;1.39;80.66;97756.53;5165951;28;20207;-58
2021/04/07 05:54:07;;;;;;;7.70;7.00;;;0.60;99.90;;;1.49;80.15;97774.25;5166293;28;20239;-56
2021/04/07 05:56:39;;;;;;;8.10;7.40;;;0.60;99.90;;;1.52;80.02;97769.50;5165789;28;20274;-54
2021/04/07 05:59:12;;;;;;;7.60;7.00;;;0.70;99.90;;;1.50;80.13;97781.06;5158570;28;20209;-55
2021/04/07 06:01:44;;;;;;;8.60;6.60;;;0.70;99.90;;;1.46;79.70;97782.41;5164830;28;20663;-57
2021/04/07 06:04:16;;;;;;;7.27;6.57;;;0.60;99.90;;;1.49;79.31;97789.38;5165898;28;20249;-57
2021/04/07 06:06:48;;;;;;;7.47;6.73;;;0.70;99.90;;;1.47;79.53;97795.88;5165669;28;20299;-56
2021/04/07 06:09:20;;;;;;;6.07;5.50;;;0.70;99.90;;;1.49;79.15;97802.84;5166325;28;20286;-54
2021/04/07 06:11:52;;;;;;;7.23;6.50;;;0.70;99.90;;;1.50;79.51;97807.13;5165723;28;20203;-55
2021/04/07 06:14:25;;;;;;;7.33;6.63;;;0.70;99.90;;;1.54;79.89;97813.31;5166389;28;20647;-54
2021/04/07 06:16:57;;;;;;;6.97;6.33;;;0.70;99.90;;;1.60;80.44;97818.91;5165771;28;20289;-51
2021/04/07 06:19:29;;;;;;;7.47;6.77;;;0.80;99.90;;;1.61;79.02;97825.72;5165992;28;20209;-53
2021/04/07 06:22:01;;;;;;;7.33;6.40;;;0.80;99.90;;;1.59;79.94;97829.72;5166346;28;20282;-55
2021/04/07 06:24:33;;;;;;;6.87;6.07;;;0.90;99.90;;;1.61;79.81;97823.22;5165975;28;20726;-54
2021/04/07 06:27:06;;;;;;;6.77;6.07;;;0.80;99.90;;;1.66;78.62;97829.56;5165662;28;20316;-54
2021/04/07 06:29:39;;;;;;;7.07;6.37;;;0.90;99.90;;;1.75;79.63;97832.91;5165903;28;20199;-50
2021/04/07 06:32:11;;;;;;;8.00;7.20;;;0.90;99.90;;;1.76;78.88;97831.25;5166113;28;20943;-53
2021/04/07 06:34:43;;;;;;;6.87;6.37;;;0.90;99.90;;;1.77;78.66;97833.94;5165943;28;20199;-53
2021/04/07 06:37:15;;;;;;;6.43;5.83;;;1.00;99.90;;;1.85;77.72;97837.13;5165615;28;20234;-55
2021/04/07 06:39:47;;;;;;;6.27;5.87;;;1.00;99.90;;;1.99;77.75;97843.41;5165416;28;20581;-57
2021/04/07 06:42:19;;;;;;;8.23;6.03;;;1.10;99.90;;;1.96;76.52;97838.09;5165512;28;20715;-53
2021/04/07 06:44:52;;;;;;;6.47;5.87;;;1.10;99.90;;;2.02;76.68;97842.03;5165902;28;20619;-55
2021/04/07 06:47:26;;;;;;;6.47;5.87;;;1.10;99.90;;;2.13;76.48;97855.59;5165217;28;20203;-55
2021/04/07 06:49:58;;;;;;;6.83;6.20;;;1.20;99.90;;;2.18;76.26;97856.91;5165635;28;20206;-54
2021/04/07 06:52:31;;;;;;;6.47;5.97;;;1.30;99.90;;;2.22;76.32;97861.44;5166026;28;20211;-54
2021/04/07 06:55:05;;;;;;;6.13;5.53;;;1.40;99.90;;;2.22;75.67;97869.00;5165361;28;20204;-55
2021/04/07 06:57:37;;;;;;;6.77;6.17;;;1.40;99.90;;;2.28;75.33;97872.84;5165424;28;20318;-53
2021/04/07 07:00:12;;;;;;;6.70;6.20;;;1.40;99.90;;;2.44;74.25;97873.44;5165409;28;20201;-55
2021/04/07 07:02:45;;;;;;;7.13;6.53;;;1.50;99.90;;;2.47;74.58;97878.75;5165208;28;20195;-51
2021/04/07 07:05:17;;;;;;;6.33;5.73;;;1.60;99.90;;;2.46;74.22;97879.50;5164917;28;20714;-54
2021/04/07 07:07:50;;;;;;;7.07;5.93;;;1.60;99.90;;;2.54;73.67;97870.09;5165340;28;20195;-52
2021/04/07 07:10:32;;;;;;;7.77;6.10;;;1.60;99.90;;;2.80;72.61;97880.81;5164574;28;20202;-52
2021/04/07 07:13:06;;;;;;;8.97;6.23;;;1.80;99.90;;;2.89;72.10;97879.09;5165222;28;20199;-56
2021/04/07 07:15:39;;;;;;;6.07;5.57;;;2.00;99.90;;;3.23;71.29;97879.44;5164547;28;20697;-50
2021/04/07 07:18:19;;;;;;;6.20;5.60;;;2.20;99.90;;;3.50;68.98;97882.56;5164950;28;20227;-53
2021/04/07 07:20:52;;;;;;;6.80;5.57;;;2.30;99.90;;;3.36;68.26;97886.44;5165228;28;20413;-54
2021/04/07 07:23:25;;;;;;;7.53;5.70;;;2.30;99.90;;;3.51;68.99;97890.25;5164709;28;20207;-52
2021/04/07 07:25:59;;;;;;;6.33;5.17;;;2.40;99.90;;;4.02;67.69;97891.97;5164561;28;20238;-56
2021/04/07 07:28:41;;;;;;;5.80;5.30;;;3.00;99.90;;;4.22;65.62;97904.59;5164463;28;20201;-51
2021/04/07 07:31:20;;;;;;;5.20;4.80;;;3.10;99.90;;;4.22;65.53;97898.66;5165017;28;20203;-54
2021/04/07 07:33:53;;;;;;;5.73;5.00;;;3.10;99.90;;;3.96;64.16;97904.97;5164799;28;20257;-52
2021/04/07 07:36:28;;;;;;;5.03;4.63;;;3.00;99.90;;;3.96;65.90;97904.97;5164576;28;20305;-56
2021/04/07 07:39:00;;;;;;;6.13;5.33;;;2.90;99.90;;;3.84;66.29;97912.44;5165013;28;20652;-56
2021/04/07 07:41:36;;;;;;;5.20;4.80;;;2.80;99.90;;;3.70;66.12;97920.50;5164892;28;20203;-54
2021/04/07 07:44:24;;;;;;;5.13;4.63;;;2.70;99.90;;;3.76;66.40;97925.19;5164533;28;20294;-51
2021/04/07 07:47:02;;;;;;;4.93;4.40;;;2.70;99.90;;;3.81;65.77;97923.94;5163925;28;20633;-54
2021/04/07 07:49:35;;;;;;;4.83;4.30;;;2.70;99.90;;;3.83;65.27;97927.47;5164944;28;20235;-51
2021/04/07 07:52:07;;;;;;;4.17;3.80;;;2.70;99.90;;;3.94;62.85;97936.81;5164851;28;20209;-52
2021/04/07 07:54:39;;;;;;;4.27;3.80;;;2.90;99.90;;;4.10;63.98;97935.59;5164602;28;20241;-54
2021/04/07 07:57:11;;;;;;;5.20;3.70;;;3.10;99.90;;;4.32;63.32;97941.66;5164060;28;20334;-53
2021/04/07 07:59:43;;;;;;;5.17;4.10;;;3.40;99.90;;;4.18;63.50;97944.72;5164487;28;20267;-54
2021/04/07 08:02:20;;;;;;;4.53;3.90;;;3.40;99.90;;;4.29;63.54;97947.38;5164554;28;20249;-55
2021/04/07 08:04:52;;;;;;;6.00;4.43;;;3.40;99.90;;;4.18;61.35;97952.28;5164491;28;20213;-57
2021/04/07 08:07:36;;;;;;;4.87;4.43;;;3.40;99.90;;;4.31;62.01;97950.00;5163874;28;20201;-55
2021/04/07 08:10:10;;;;;;;4.60;4.17;;;3.40;99.90;;;4.35;60.90;97948.59;5164652;28;20206;-54
2021/04/07 08:12:43;;;;;;;5.87;4.37;;;3.30;99.90;;;4.19;60.94;97961.63;5164599;28;20578;-50
2021/04/07 08:15:16;;;;;;;6.10;4.30;;;3.10;99.90;;;3.99;61.92;97965.91;5164400;28;20702;-55
2021/04/07 08:17:49;;;;;;;5.53;4.03;;;3.00;99.90;;;3.85;61.76;97968.94;5163624;28;20223;-50
2021/04/07 08:20:22;;;;;;;5.20;4.37;;;2.90;99.90;;;3.77;61.96;97967.38;5164065;28;20200;-53
2021/04/07 08:22:55;;;;;;;4.43;4.03;;;2.90;99.90;;;3.59;62.54;97977.72;5163273;28;20195;-57
2021/04/07 08:25:28;;;;;;;5.67;4.77;;;2.80;99.90;;;3.68;62.44;97972.56;5162478;28;20240;-51
2021/04/07 08:28:01;;;;;;;4.10;3.70;;;2.80;99.90;;;3.87;60.68;97981.72;5167800;28;20199;-53
2021/04/07 08:30:34;;;;;;;4.60;4.20;;;2.90;99.90;;;3.88;62.52;97983.47;5167317;28;20194;-51
2021/04/07 08:33:07;;;;;;;4.93;3.80;;;3.00;99.90;;;4.15;60.76;97988.34;5166198;28;20341;-55
2021/04/07 08:35:39;;;;;;;4.40;4.10;;;3.10;99.90;;;4.00;62.35;97977.78;5158992;28;20228;-53
2021/04/07 08:38:12;;;;;;;5.70;4.10;;;3.10;99.90;;;3.88;60.88;97981.81;5160369;28;20256;-56
2021/04/07 08:40:47;;;;;;;4.50;4.10;;;2.90;99.90;;;3.79;61.26;97991.16;5163226;28;20203;-53
2021/04/07 08:43:19;;;;;;;3.90;3.60;;;2.80;99.90;;;3.86;61.20;97993.44;5166149;28;20714;-57
2021/04/07 08:45:51;;;;;;;6.40;3.90;;;2.70;99.90;;;3.70;62.32;97996.31;5165263;28;20313;-52
2021/04/07 08:48:26;;;;;;;6.23;4.50;;;2.60;99.90;;;3.54;62.96;97994.13;5164886;28;20622;-52
2021/04/07 08:51:04;;;;;;;5.30;4.37;;;2.60;99.90;;;3.46;63.86;97995.09;5165371;28;20292;-54
2021/04/07 08:53:40;;;;;;;4.57;4.13;;;2.50;99.90;;;3.60;64.14;97994.63;5164681;28;20209;-53
2021/04/07 08:56:15;;;;;;;5.00;4.20;;;2.70;99.90;;;3.79;63.02;97991.16;5165423;28;20805;-56
2021/04/07 08:58:51;;;;;;;5.13;4.63;;;2.90;99.90;;;4.22;63.11;97994.78;5165380;28;20713;-56
2021/04/07 09:01:25;;;;;;;4.97;4.00;;;3.30;99.90;;;4.54;61.82;97999.97;5164979;28;20197;-59
2021/04/07 09:04:08;;;;;;;7.03;4.10;;;3.60;99.90;;;4.90;60.97;97989.44;5165073;28;20225;-56
2021/04/07 09:06:57;;;;;;;6.67;4.70;;;4.00;99.90;;;5.25;59.01;97993.03;5165106;28;20217;-51
2021/04/07 09:09:35;;;;;;;4.80;4.17;;;4.10;99.90;;;5.03;58.54;98003.06;5164390;28;20196;-53
2021/04/07 09:12:09;;;;;;;4.83;4.20;;;3.90;99.90;;;4.89;58.23;98005.41;5164803;28;20293;-53
2021/04/07 09:14:41;;;;;;;5.23;4.40;;;3.70;99.90;;;4.58;59.70;98009.59;5165391;28;20202;-55
2021/04/07 09:17:13;;;;;;;5.10;4.70;;;3.50;99.90;;;4.58;61.22;98011.22;5164429;28;20488;-53
2021/04/07 09:19:56;;;;;;;4.90;4.53;;;3.40;99.90;;;4.48;62.13;98018.06;5159597;28;20203;-57
2021/04/07 09:22:29;;;;;;;4.67;4.37;;;3.30;99.90;;;4.52;63.29;98016.66;5165259;28;20292;-52
2021/04/07 09:25:10;;;;;;;5.07;4.47;;;3.30;99.90;;;4.45;63.56;98025.41;5164295;28;20209;-53
2021/04/07 09:27:42;;;;;;;4.57;4.23;;;3.20;99.90;;;4.48;63.28;98022.25;5164778;28;20206;-56
2021/04/07 09:30:16;;;;;;;5.17;4.70;;;3.40;99.90;;;4.30;63.80;98024.13;5164437;28;20210;-54
2021/04/07 09:32:48;;;;;;;5.97;5.03;;;3.30;99.90;;;4.43;64.71;98011.72;5164774;28;20567;-55
2021/04/07 09:35:21;;;;;;;6.00;5.40;;;3.30;99.90;;;4.27;65.19;98014.66;5165614;28;20737;-54
2021/04/07 09:37:53;;;;;;;7.13;4.87;;;3.10;99.90;;;4.34;66.11;98025.28;5168090;28;20576;-55
2021/04/07 09:40:25;;;;;;;4.67;4.27;;;3.20;99.90;;;4.25;66.71;98016.16;5173131;28;20211;-53
2021/04/07 09:42:58;;;;;;;5.37;4.87;;;3.30;99.90;;;4.64;66.04;98011.75;5164728;28;20214;-57
2021/04/07 09:45:31;;;;;;;4.87;4.20;;;3.60;99.90;;;4.81;62.37;98014.00;5163903;28;20305;-54
2021/04/07 09:48:04;;;;;;;4.23;3.87;;;3.80;99.90;;;4.80;60.61;98018.94;5163719;28;20253;-57
2021/04/07 09:50:37;;;;;;;4.77;4.03;;;3.80;99.90;;;4.79;60.47;98012.13;5164160;28;20203;-55
2021/04/07 09:53:09;;;;;;;5.13;4.40;;;3.80;99.90;;;4.71;60.92;98034.25;5165063;28;20200;-54
2021/04/07 09:55:41;;;;;;;4.80;4.40;;;3.60;99.90;;;4.61;61.55;98031.75;5164530;28;20223;-53
2021/04/07 09:58:13;;;;;;;4.77;4.37;;;3.50;99.90;;;4.46;63.54;98052.50;5164017;28;20225;-56
2021/04/07 10:00:45;;;;;;;4.67;4.27;;;3.30;99.90;;;4.36;64.12;98049.06;5162860;28;20301;-53
2021/04/07 10:03:17;;;;;;;9.70;8.30;;;3.30;99.90;;;4.43;64.23;98049.69;5157343;28;20217;-53
2021/04/07 10:05:50;;;;;;;10.17;9.17;;;3.30;99.90;;;4.37;64.96;98049.19;5163720;28;20300;-55
2021/04/07 10:08:23;;;;;;;13.77;12.07;;;3.40;99.90;;;4.28;65.73;98058.53;5164664;28;20211;-56
2021/04/07 10:11:08;;;;;;;5.93;5.43;;;3.30;99.90;;;4.36;66.70;98049.94;5164068;28;20206;-54
2021/04/07 10:13:40;;;;;;;6.57;5.10;;;3.30;99.90;;;4.64;66.92;98053.13;5162598;28;20686;-56
2021/04/07 10:16:15;;;;;;;5.70;5.30;;;3.40;99.90;;;4.68;67.69;98049.19;5163911;28;20228;-53
2021/04/07 10:18:47;;;;;;;5.23;4.83;;;3.50;99.90;;;4.64;67.89;98052.25;5163125;28;20228;-55
2021/04/07 10:21:22;;;;;;;5.40;4.87;;;3.50;99.90;;;4.72;67.74;98054.66;5163352;28;20352;-52
2021/04/07 10:23:57;;;;;;;6.03;4.93;;;3.60;99.90;;;4.80;66.29;98051.84;5164259;28;20206;-55
2021/04/07 10:26:29;;;;;;;4.93;4.53;;;3.70;99.90;;;4.90;63.67;98046.78;5164282;28;20722;-56
2021/04/07 10:29:03;;;;;;;5.17;4.77;;;4.00;99.90;;;5.10;63.34;98056.03;5163863;28;20195;-56
2021/04/07 10:31:36;;;;;;;4.60;4.27;;;4.10;99.90;;;5.09;62.25;98050.03;5163076;28;20209;-57
2021/04/07 10:34:10;;;;;;;5.10;4.07;;;4.00;99.90;;;4.91;62.73;98058.69;5162179;28;20213;-56
2021/04/07 10:36:45;;;;;;;4.50;4.20;;;3.70;99.90;;;4.59;63.44;98056.91;5165108;28;20316;-57
2021/04/07 10:39:18;;;;;;;4.27;3.87;;;3.50;99.90;;;4.63;64.64;98060.59;5169937;28;20786;-57
2021/04/07 10:41:52;;;;;;;5.90;4.73;;;3.50;99.90;;;4.55;64.39;98061.59;5165545;28;20256;-56
2021/04/07 10:44:26;;;;;;;4.50;4.10;;;3.50;99.90;;;4.38;65.39;98061.09;5163029;28;20205;-54
2021/04/07 10:46:59;;;;;;;5.50;4.90;;;3.50;99.90;;;4.35;66.75;98058.31;5162768;28;20358;-55
2021/04/07 10:49:31;;;;;;;4.83;4.53;;;3.40;99.90;;;4.24;66.46;98064.09;5160160;28;20586;-54
2021/04/07 10:52:06;;;;;;;4.90;4.40;;;3.40;99.90;;;4.27;65.57;98055.13;5161296;28;20291;-53
2021/04/07 10:54:38;;;;;;;5.07;4.67;;;3.30;99.90;;;4.39;64.14;98059.44;5162657;28;20299;-56